createdAt,value
2019-06-20T00:01:12.269Z,90.60
2019-06-20T00:03:13.940Z,90.60
2019-06-20T00:05:15.636Z,89.40
2019-06-20T00:07:17.462Z,90.00
2019-06-20T00:09:19.433Z,89.20
2019-06-20T00:11:21.120Z,91.70
2019-06-20T00:13:22.789Z,90.90
2019-06-20T00:15:24.775Z,93.20
2019-06-20T00:17:26.462Z,93.90
2019-06-20T00:19:28.139Z,92.60
2019-06-20T00:21:29.817Z,93.80
2019-06-20T00:23:31.485Z,93.20
2019-06-20T00:25:33.175Z,93.40
2019-06-20T00:27:34.894Z,92.90
2019-06-20T00:29:36.941Z,92.00
2019-06-20T00:31:38.705Z,92.00
2019-06-20T00:33:40.391Z,92.80
2019-06-20T00:35:42.069Z,92.10
2019-06-20T00:37:43.738Z,91.40
2019-06-20T00:39:45.414Z,92.40
2019-06-20T00:41:47.093Z,93.00
2019-06-20T00:43:48.794Z,92.60
2019-06-20T00:45:50.550Z,92.20
2019-06-20T00:47:52.431Z,91.60
2019-06-20T00:49:54.121Z,89.80
2019-06-20T00:51:55.812Z,90.80
2019-06-20T00:53:57.498Z,91.90
2019-06-20T00:55:59.165Z,93.70
2019-06-20T00:58:00.838Z,94.00
2019-06-20T01:00:03.522Z,95.40
2019-06-20T01:02:05.201Z,96.00
2019-06-20T01:04:06.936Z,96.20
2019-06-20T01:06:08.613Z,96.30
2019-06-20T01:08:10.296Z,96.00
2019-06-20T01:10:12.017Z,95.20
2019-06-20T01:12:13.766Z,96.30
2019-06-20T01:14:15.435Z,95.10
2019-06-20T01:16:17.122Z,95.90
2019-06-20T01:18:18.793Z,96.70
2019-06-20T01:20:20.477Z,96.60
2019-06-20T01:22:22.180Z,96.90
2019-06-20T01:24:23.852Z,97.00
2019-06-20T01:26:25.790Z,96.70
2019-06-20T01:28:27.461Z,96.50
2019-06-20T01:30:29.139Z,96.00
2019-06-20T01:32:30.826Z,96.00
2019-06-20T01:34:32.810Z,96.70
2019-06-20T01:36:34.496Z,97.20
2019-06-20T01:38:36.166Z,97.30
2019-06-20T01:40:37.842Z,97.30
2019-06-20T01:42:39.527Z,97.40
2019-06-20T01:44:41.198Z,97.10
2019-06-20T01:46:42.876Z,95.90
2019-06-20T01:48:44.546Z,95.50
2019-06-20T01:50:46.218Z,95.10
2019-06-20T01:52:47.889Z,94.50
2019-06-20T01:54:49.650Z,94.20
2019-06-20T01:56:51.323Z,94.40
2019-06-20T01:58:52.996Z,94.50
2019-06-20T02:00:54.666Z,93.90
2019-06-20T02:02:56.357Z,93.80
2019-06-20T02:04:58.265Z,94.10
2019-06-20T02:06:59.954Z,94.30
2019-06-20T02:09:01.620Z,93.80
2019-06-20T02:11:03.290Z,94.10
2019-06-20T02:13:04.970Z,94.60
2019-06-20T02:15:06.625Z,94.90
2019-06-20T02:17:08.597Z,94.90
2019-06-20T02:19:10.265Z,94.80
2019-06-20T02:21:11.931Z,94.30
2019-06-20T02:23:13.610Z,94.50
2019-06-20T02:25:16.702Z,94.80
2019-06-20T02:27:19.438Z,95.70
2019-06-20T02:29:21.088Z,95.90
2019-06-20T02:31:22.754Z,95.10
2019-06-20T02:33:24.442Z,95.50
2019-06-20T02:35:26.163Z,95.80
2019-06-20T02:37:27.882Z,94.20
2019-06-20T02:39:29.549Z,95.70
2019-06-20T02:41:31.223Z,95.60
2019-06-20T02:43:33.007Z,95.10
2019-06-20T02:45:37.943Z,94.90
2019-06-20T02:47:40.014Z,94.90
2019-06-20T02:49:41.678Z,94.90
2019-06-20T02:51:43.669Z,94.70
2019-06-20T02:53:45.367Z,95.20
2019-06-20T02:55:47.196Z,95.20
2019-06-20T02:57:49.549Z,95.30
2019-06-20T02:59:51.215Z,96.20
2019-06-20T03:01:53.101Z,96.30
2019-06-20T03:03:54.766Z,95.40
2019-06-20T03:05:56.449Z,95.90
2019-06-20T03:07:58.442Z,95.90
2019-06-20T03:10:00.126Z,95.80
2019-06-20T03:12:01.913Z,96.80
2019-06-20T03:14:03.606Z,95.80
2019-06-20T03:16:05.262Z,94.10
2019-06-20T03:18:06.933Z,94.10
2019-06-20T03:20:08.613Z,94.20
2019-06-20T03:22:10.301Z,94.80
2019-06-20T03:24:11.969Z,94.80
2019-06-20T03:26:13.637Z,95.30
2019-06-20T03:28:15.319Z,95.20
2019-06-20T03:30:17.887Z,94.00
2019-06-20T03:32:19.577Z,93.60
2019-06-20T03:34:21.329Z,95.10
2019-06-20T03:36:23.002Z,96.00
2019-06-20T03:38:24.673Z,96.40
2019-06-20T03:40:26.336Z,96.20
2019-06-20T03:42:28.009Z,96.80
2019-06-20T03:44:29.669Z,96.20
2019-06-20T03:46:31.333Z,96.20
2019-06-20T03:48:33.013Z,96.60
2019-06-20T03:50:34.663Z,97.50
2019-06-20T03:52:36.333Z,97.70
2019-06-20T03:54:38.257Z,97.80
2019-06-20T03:56:40.217Z,97.90
2019-06-20T03:58:42.154Z,98.10
2019-06-20T04:00:43.844Z,97.50
2019-06-20T04:02:45.615Z,97.10
2019-06-20T04:04:47.719Z,97.00
2019-06-20T04:06:49.638Z,97.60
2019-06-20T04:08:51.569Z,98.00
2019-06-20T04:10:53.241Z,97.00
2019-06-20T04:12:54.945Z,96.50
2019-06-20T04:14:56.630Z,96.50
2019-06-20T04:16:58.298Z,96.30
2019-06-20T04:18:59.982Z,96.70
2019-06-20T04:21:02.390Z,97.00
2019-06-20T04:23:04.070Z,97.60
2019-06-20T04:25:05.776Z,97.30
2019-06-20T04:27:07.742Z,97.40
2019-06-20T04:29:09.418Z,97.00
2019-06-20T04:31:11.080Z,97.10
2019-06-20T04:33:12.763Z,96.90
2019-06-20T04:35:14.432Z,97.30
2019-06-20T04:37:16.101Z,97.40
2019-06-20T04:39:19.525Z,97.40
2019-06-20T04:41:21.658Z,97.70
2019-06-20T04:43:23.341Z,98.50
2019-06-20T04:45:47.554Z,99.00
2019-06-20T04:47:49.218Z,99.40
2019-06-20T04:49:54.131Z,98.50
2019-06-20T04:51:55.871Z,98.20
2019-06-20T04:53:57.577Z,96.50
2019-06-20T04:55:59.242Z,97.10
2019-06-20T04:58:00.915Z,97.60
2019-06-20T05:00:03.821Z,97.80
2019-06-20T05:02:05.499Z,98.40
2019-06-20T05:04:07.204Z,98.10
2019-06-20T05:06:08.958Z,98.10
2019-06-20T05:08:10.642Z,97.40
2019-06-20T05:10:12.309Z,97.00
2019-06-20T05:12:13.979Z,96.20
2019-06-20T05:14:15.666Z,96.10
2019-06-20T05:16:17.408Z,97.00
2019-06-20T05:18:19.113Z,95.80
2019-06-20T05:20:20.773Z,96.40
2019-06-20T05:22:22.441Z,93.90
2019-06-20T05:24:25.656Z,95.30
2019-06-20T05:26:27.920Z,95.00
2019-06-20T05:28:29.658Z,94.50
2019-06-20T05:30:31.328Z,94.30
2019-06-20T05:32:32.992Z,95.40
2019-06-20T05:34:34.655Z,95.90
2019-06-20T05:36:36.333Z,95.30
2019-06-20T05:38:38.341Z,95.00
2019-06-20T05:40:40.017Z,95.00
2019-06-20T05:42:41.725Z,95.00
2019-06-20T05:44:43.474Z,94.50
2019-06-20T05:46:45.143Z,96.10
2019-06-20T05:48:46.826Z,96.10
2019-06-20T05:50:48.596Z,95.60
2019-06-20T05:52:50.556Z,97.00
2019-06-20T05:54:52.489Z,96.00
2019-06-20T05:56:54.445Z,96.80
2019-06-20T05:58:56.113Z,97.50
2019-06-20T06:00:57.791Z,97.70
2019-06-20T06:02:59.552Z,96.90
2019-06-20T06:05:01.713Z,96.80
2019-06-20T06:07:04.041Z,97.20
2019-06-20T06:09:05.925Z,95.80
2019-06-20T06:11:07.596Z,97.50
2019-06-20T06:13:09.254Z,97.40
2019-06-20T06:15:10.936Z,97.20
2019-06-20T06:17:12.610Z,97.20
2019-06-20T06:19:14.394Z,98.10
2019-06-20T06:21:16.074Z,97.80
2019-06-20T06:23:17.732Z,98.70
2019-06-20T06:25:19.412Z,97.00
2019-06-20T06:27:21.194Z,97.40
2019-06-20T06:29:23.130Z,96.80
2019-06-20T06:31:24.801Z,97.30
2019-06-20T06:33:26.737Z,96.60
2019-06-20T06:35:28.418Z,97.80
2019-06-20T06:37:30.081Z,97.30
2019-06-20T06:39:31.763Z,97.30
2019-06-20T06:41:33.746Z,95.90
2019-06-20T06:43:41.578Z,94.70
2019-06-20T06:45:39.096Z,95.30
2019-06-20T06:47:40.844Z,95.20
2019-06-20T06:49:42.518Z,95.60
2019-06-20T06:51:44.185Z,96.80
2019-06-20T06:53:45.853Z,96.00
2019-06-20T06:55:47.534Z,95.30
2019-06-20T06:57:49.206Z,94.00
2019-06-20T06:59:50.881Z,93.00
2019-06-20T07:01:52.557Z,94.90
2019-06-20T07:03:54.229Z,93.40
2019-06-20T07:05:55.919Z,94.10
2019-06-20T07:07:57.743Z,92.40
2019-06-20T07:09:59.483Z,93.80
2019-06-20T07:12:01.223Z,90.50
2019-06-20T07:14:02.945Z,90.60
2019-06-20T07:16:04.629Z,92.20
2019-06-20T07:18:06.359Z,91.70
2019-06-20T07:20:08.533Z,91.10
2019-06-20T07:22:10.206Z,91.90
2019-06-20T07:24:11.877Z,91.30
2019-06-20T07:26:13.952Z,90.40
2019-06-20T07:28:15.676Z,88.10
2019-06-20T07:30:17.355Z,85.70
2019-06-20T07:32:19.028Z,87.20
2019-06-20T07:34:20.945Z,83.30
2019-06-20T07:36:22.642Z,90.30
2019-06-20T07:38:24.401Z,90.20
2019-06-20T07:40:26.061Z,78.40
2019-06-20T07:42:27.760Z,81.80
2019-06-20T07:44:29.497Z,83.10
2019-06-20T07:46:31.177Z,85.40
2019-06-20T07:48:32.850Z,85.70
2019-06-20T07:50:34.531Z,74.90
2019-06-20T07:52:36.498Z,78.70
2019-06-20T07:54:38.168Z,78.60
2019-06-20T07:56:39.848Z,81.10
2019-06-20T07:58:41.518Z,79.80
2019-06-20T08:00:43.511Z,70.30
2019-06-20T08:02:45.198Z,72.80
2019-06-20T08:04:46.952Z,69.80
2019-06-20T08:06:48.663Z,73.60
2019-06-20T08:08:50.409Z,73.50
2019-06-20T08:10:52.178Z,73.50
2019-06-20T08:12:54.141Z,76.00
2019-06-20T08:14:56.098Z,81.20
2019-06-20T08:16:57.785Z,77.60
2019-06-20T08:18:59.458Z,72.50
2019-06-20T08:21:01.144Z,66.40
2019-06-20T08:23:02.814Z,61.20
2019-06-20T08:25:05.399Z,65.10
2019-06-20T08:27:07.203Z,66.90
2019-06-20T08:29:20.328Z,64.00
2019-06-20T08:31:12.461Z,64.10
2019-06-20T08:33:14.143Z,59.40
2019-06-20T08:35:15.921Z,58.70
2019-06-20T08:37:17.682Z,59.90
2019-06-20T08:39:19.461Z,64.10
2019-06-20T08:41:21.554Z,57.70
2019-06-20T08:43:23.218Z,57.70
2019-06-20T08:45:25.509Z,56.30
2019-06-20T08:47:27.181Z,47.70
2019-06-20T08:49:28.866Z,43.80
2019-06-20T08:51:30.546Z,41.10
2019-06-20T08:53:32.416Z,40.00
2019-06-20T08:55:34.104Z,38.30
2019-06-20T08:57:35.789Z,42.50
2019-06-20T08:59:37.556Z,42.40
2019-06-20T09:01:39.238Z,44.90
2019-06-20T09:03:41.052Z,44.40
2019-06-20T09:05:42.877Z,52.90
2019-06-20T09:07:44.621Z,53.80
2019-06-20T09:09:46.529Z,51.50
2019-06-20T09:11:48.228Z,54.50
2019-06-20T09:13:49.977Z,51.80
2019-06-20T09:15:52.224Z,49.20
2019-06-20T09:17:56.697Z,47.40
2019-06-20T09:19:58.454Z,46.70
2019-06-20T09:22:00.583Z,43.20
2019-06-20T09:24:04.111Z,40.90
2019-06-20T09:26:06.197Z,41.00
2019-06-20T09:28:07.871Z,32.20
2019-06-20T09:30:10.022Z,32.50
2019-06-20T09:32:11.982Z,27.80
2019-06-20T09:34:13.669Z,35.50
2019-06-20T09:36:15.341Z,29.60
2019-06-20T09:38:17.021Z,34.40
2019-06-20T09:40:18.794Z,30.80
2019-06-20T09:42:20.478Z,35.00
2019-06-20T09:44:22.141Z,31.90
2019-06-20T09:46:23.834Z,44.20
2019-06-20T09:48:25.494Z,40.20
2019-06-20T09:50:27.163Z,37.30
2019-06-20T09:52:28.837Z,41.30
2019-06-20T09:54:30.506Z,39.80
2019-06-20T09:56:32.190Z,31.60
2019-06-20T09:58:33.879Z,33.90
2019-06-20T10:00:35.849Z,27.50
2019-06-20T10:02:37.819Z,34.30
2019-06-20T10:04:39.730Z,22.90
2019-06-20T10:06:41.405Z,25.80
2019-06-20T10:08:43.083Z,25.30
2019-06-20T10:10:45.458Z,26.90
2019-06-20T10:12:49.552Z,21.00
2019-06-20T10:14:51.590Z,17.90
2019-06-20T10:16:55.118Z,20.50
2019-06-20T10:18:57.128Z,17.60
2019-06-20T10:20:58.884Z,19.20
2019-06-20T10:23:00.694Z,15.30
2019-06-20T10:25:02.541Z,21.10
2019-06-20T10:27:04.574Z,12.30
2019-06-20T10:29:06.344Z,16.70
2019-06-20T10:31:08.013Z,14.00
2019-06-20T10:33:09.765Z,17.20
2019-06-20T10:35:11.638Z,13.80
2019-06-20T10:37:13.323Z,19.80
2019-06-20T10:39:14.992Z,19.00
2019-06-20T10:41:16.665Z,21.00
2019-06-20T10:43:18.334Z,19.50
2019-06-20T10:45:20.500Z,22.10
2019-06-20T10:47:32.400Z,21.80
2019-06-20T10:49:25.909Z,18.00
2019-06-20T10:51:32.948Z,18.70
2019-06-20T10:53:34.620Z,17.60
2019-06-20T10:55:36.290Z,20.70
2019-06-20T10:57:37.966Z,16.90
2019-06-20T10:59:39.904Z,17.80
2019-06-20T11:01:44.283Z,16.30
2019-06-20T11:03:47.730Z,16.30
2019-06-20T11:05:49.866Z,13.50
2019-06-20T11:07:52.050Z,11.30
2019-06-20T11:09:53.738Z,18.90
2019-06-20T11:11:55.509Z,9.80
2019-06-20T11:13:57.186Z,9.80
2019-06-20T11:15:58.857Z,8.50
2019-06-20T11:18:00.537Z,14.20
2019-06-20T11:20:03.061Z,12.40
2019-06-20T11:22:04.937Z,14.20
2019-06-20T11:24:07.005Z,16.60
2019-06-20T11:26:08.661Z,19.60
2019-06-20T11:28:10.345Z,23.30
2019-06-20T11:30:12.364Z,14.00
2019-06-20T11:32:14.026Z,10.90
2019-06-20T11:34:15.705Z,13.30
2019-06-20T11:36:17.375Z,4.50
2019-06-20T11:38:19.054Z,3.70
2019-06-20T11:40:22.375Z,6.30
2019-06-20T11:42:24.037Z,7.70
2019-06-20T11:44:25.726Z,4.70
2019-06-20T11:46:27.394Z,4.70
2019-06-20T11:48:29.077Z,2.70
2019-06-20T11:50:30.746Z,2.00
2019-06-20T11:52:35.943Z,2.50
2019-06-20T11:54:36.291Z,2.90
2019-06-20T11:56:37.969Z,1.00
2019-06-20T11:58:39.666Z,3.30
2019-06-20T12:00:41.515Z,2.50
2019-06-20T12:02:44.189Z,2.50
2019-06-20T12:04:47.113Z,6.30
2019-06-20T12:06:49.283Z,4.60
2019-06-20T12:08:51.184Z,3.40
2019-06-20T12:10:52.850Z,4.20
2019-06-20T12:12:54.765Z,6.80
2019-06-20T12:14:56.438Z,5.50
2019-06-20T12:16:58.105Z,6.30
2019-06-20T12:18:59.790Z,1.70
2019-06-20T12:21:01.762Z,4.10
2019-06-20T12:23:03.454Z,1.30
2019-06-20T12:25:05.217Z,1.80
2019-06-20T12:27:06.872Z,1.00
2019-06-20T12:29:08.877Z,2.20
2019-06-20T12:31:19.438Z,3.10
2019-06-20T12:33:14.133Z,2.30
2019-06-20T12:35:15.853Z,1.00
2019-06-20T12:37:17.837Z,1.00
2019-06-20T12:39:19.796Z,1.00
2019-06-20T12:41:21.463Z,1.00
2019-06-20T12:43:23.141Z,1.00
2019-06-20T12:45:24.805Z,1.00
2019-06-20T12:47:26.474Z,7.90
2019-06-20T12:49:28.146Z,1.00
2019-06-20T12:51:29.825Z,2.00
2019-06-20T12:53:31.497Z,1.00
2019-06-20T12:55:33.183Z,2.40
2019-06-20T12:57:34.934Z,6.00
2019-06-20T12:59:38.964Z,1.00
2019-06-20T13:01:44.221Z,2.00
2019-06-20T13:03:43.789Z,1.00
2019-06-20T13:05:46.998Z,1.00
2019-06-20T13:07:50.352Z,1.00
2019-06-20T13:09:52.443Z,1.00
2019-06-20T13:11:54.174Z,1.30
2019-06-20T13:13:55.862Z,1.00
2019-06-20T13:15:57.536Z,1.00
2019-06-20T13:17:59.542Z,1.00
2019-06-20T13:20:01.247Z,1.00
2019-06-20T13:22:03.018Z,1.00
2019-06-20T13:24:04.690Z,1.00
2019-06-20T13:26:06.374Z,1.00
2019-06-20T13:28:08.353Z,1.00
2019-06-20T13:30:10.246Z,1.00
2019-06-20T13:32:11.907Z,1.00
2019-06-20T13:34:13.570Z,1.00
2019-06-20T13:36:15.594Z,1.00
2019-06-20T13:38:17.261Z,1.00
2019-06-20T13:40:18.947Z,1.00
2019-06-20T13:42:20.705Z,1.00
2019-06-20T13:44:22.372Z,1.00
2019-06-20T13:46:24.045Z,1.00
2019-06-20T13:48:25.949Z,1.00
2019-06-20T13:50:27.638Z,1.00
2019-06-20T13:52:29.410Z,1.00
2019-06-20T13:54:31.170Z,1.00
2019-06-20T13:56:32.841Z,1.00
2019-06-20T13:58:34.537Z,1.00
2019-06-20T14:00:36.296Z,1.00
2019-06-20T14:02:39.411Z,1.00
2019-06-20T14:04:42.860Z,1.00
2019-06-20T14:06:45.513Z,1.00
2019-06-20T14:08:47.478Z,1.00
2019-06-20T14:10:49.810Z,1.00
2019-06-20T14:12:51.645Z,1.20
2019-06-20T14:14:54.374Z,1.00
2019-06-20T14:16:56.808Z,1.00
2019-06-20T14:18:58.930Z,1.00
2019-06-20T14:21:00.958Z,1.00
2019-06-20T14:23:02.622Z,1.00
2019-06-20T14:25:04.301Z,1.00
2019-06-20T14:27:05.978Z,1.00
2019-06-20T14:29:07.678Z,1.00
2019-06-20T14:31:09.530Z,1.00
2019-06-20T14:33:11.529Z,1.00
2019-06-20T14:35:13.300Z,1.00
2019-06-20T14:37:15.286Z,1.10
2019-06-20T14:39:16.945Z,1.00
2019-06-20T14:41:18.646Z,1.30
2019-06-20T14:43:20.393Z,1.70
2019-06-20T14:45:22.070Z,1.00
2019-06-20T14:47:23.739Z,1.00
2019-06-20T14:49:25.422Z,1.00
2019-06-20T14:51:27.187Z,1.00
2019-06-20T14:53:28.874Z,1.00
2019-06-20T14:55:30.856Z,1.00
2019-06-20T14:57:32.521Z,1.00
2019-06-20T14:59:35.479Z,1.00
2019-06-20T15:01:37.379Z,1.00
2019-06-20T15:03:39.045Z,1.00
2019-06-20T15:05:40.953Z,1.00
2019-06-20T15:07:45.083Z,1.00
2019-06-20T15:09:47.646Z,1.00
2019-06-20T15:11:51.282Z,1.00
2019-06-20T15:13:53.440Z,1.00
2019-06-20T15:15:55.771Z,1.70
2019-06-20T15:17:58.312Z,1.00
2019-06-20T15:20:00.310Z,1.00
2019-06-20T15:22:01.977Z,1.20
2019-06-20T15:24:03.661Z,3.70
2019-06-20T15:26:05.335Z,2.00
2019-06-20T15:28:07.002Z,1.10
2019-06-20T15:30:08.999Z,3.00
2019-06-20T15:32:10.678Z,3.10
2019-06-20T15:34:12.347Z,3.80
2019-06-20T15:36:14.022Z,2.40
2019-06-20T15:38:15.990Z,1.00
2019-06-20T15:40:37.325Z,6.20
2019-06-20T15:42:39.001Z,1.00
2019-06-20T15:44:40.652Z,2.00
2019-06-20T15:46:42.622Z,1.50
2019-06-20T15:48:44.310Z,2.60
2019-06-20T15:50:46.273Z,4.60
2019-06-20T15:52:47.967Z,4.60
2019-06-20T15:54:50.076Z,1.70
2019-06-20T15:56:51.763Z,2.80
2019-06-20T15:58:53.433Z,2.10
2019-06-20T16:00:55.111Z,5.00
2019-06-20T16:03:08.949Z,5.50
2019-06-20T16:05:00.345Z,5.20
2019-06-20T16:07:02.021Z,6.60
2019-06-20T16:09:08.386Z,7.60
2019-06-20T16:11:08.774Z,5.20
2019-06-20T16:13:10.457Z,2.10
2019-06-20T16:15:20.177Z,2.90
2019-06-20T16:17:21.909Z,3.20
2019-06-20T16:19:23.581Z,5.30
2019-06-20T16:21:25.250Z,6.50
2019-06-20T16:23:26.918Z,6.50
2019-06-20T16:25:28.911Z,4.10
2019-06-20T16:27:30.955Z,7.40
2019-06-20T16:29:32.618Z,9.10
2019-06-20T16:31:34.406Z,5.40
2019-06-20T16:33:36.069Z,6.50
2019-06-20T16:35:37.748Z,8.20
2019-06-20T16:37:39.419Z,8.20
2019-06-20T16:39:41.094Z,7.20
2019-06-20T16:41:42.858Z,7.00
2019-06-20T16:43:44.525Z,9.00
2019-06-20T16:45:46.193Z,8.40
2019-06-20T16:47:47.966Z,6.30
2019-06-20T16:49:49.842Z,5.40
2019-06-20T16:51:51.789Z,6.20
2019-06-20T16:53:53.465Z,6.20
2019-06-20T16:55:55.134Z,7.50
2019-06-20T16:57:56.814Z,12.70
2019-06-20T16:59:58.465Z,11.50
2019-06-20T17:02:00.233Z,11.80
2019-06-20T17:04:02.246Z,10.80
2019-06-20T17:06:03.915Z,12.00
2019-06-20T17:08:05.651Z,14.80
2019-06-20T17:10:07.322Z,9.30
2019-06-20T17:12:11.125Z,10.40
2019-06-20T17:14:12.583Z,11.80
2019-06-20T17:16:14.247Z,13.80
2019-06-20T17:18:16.025Z,16.80
2019-06-20T17:20:17.855Z,14.60
2019-06-20T17:22:19.683Z,13.20
2019-06-20T17:24:21.343Z,14.00
2019-06-20T17:26:23.008Z,14.00
2019-06-20T17:28:25.009Z,14.50
2019-06-20T17:30:27.177Z,18.00
2019-06-20T17:32:28.879Z,18.90
2019-06-20T17:37:46.097Z,19.40
2019-06-20T17:39:47.778Z,20.30
2019-06-20T17:41:55.131Z,23.40
2019-06-20T17:43:53.027Z,30.90
2019-06-20T17:49:10.626Z,41.30
2019-06-20T17:51:12.390Z,40.80
2019-06-20T17:53:14.062Z,60.20
2019-06-20T17:55:16.015Z,62.10
2019-06-20T17:57:18.095Z,55.30
2019-06-20T17:59:22.699Z,60.50
2019-06-20T18:01:23.582Z,57.50
2019-06-20T18:03:25.279Z,55.00
2019-06-20T18:05:26.946Z,58.70
2019-06-20T18:07:28.638Z,61.50
2019-06-20T18:09:30.321Z,71.10
2019-06-20T18:11:32.009Z,66.30
2019-06-20T18:13:33.746Z,74.20
2019-06-20T18:15:36.712Z,72.30
2019-06-20T18:17:38.514Z,73.40
2019-06-20T18:19:40.210Z,63.80
2019-06-20T18:21:42.029Z,60.30
2019-06-20T18:23:44.863Z,62.20
2019-06-20T18:25:47.107Z,60.80
2019-06-20T18:27:49.113Z,55.10
2019-06-20T18:29:50.785Z,60.00
2019-06-20T18:31:52.453Z,61.50
2019-06-20T18:33:54.140Z,64.40
2019-06-20T18:35:56.224Z,58.10
2019-06-20T18:37:58.016Z,59.70
2019-06-20T18:40:00.046Z,61.60
2019-06-20T18:42:01.817Z,61.80
2019-06-20T18:44:03.533Z,63.30
2019-06-20T18:46:05.201Z,66.60
2019-06-20T18:48:06.890Z,69.10
2019-06-20T18:50:08.585Z,75.10
2019-06-20T18:52:10.369Z,75.20
2019-06-20T18:54:12.049Z,65.90
2019-06-20T18:56:13.737Z,63.10
2019-06-20T18:58:15.425Z,56.00
2019-06-20T19:00:30.759Z,53.00
2019-06-20T19:02:20.825Z,56.90
2019-06-20T19:04:22.538Z,56.50
2019-06-20T19:06:35.534Z,55.80
2019-06-20T19:08:28.426Z,63.40
2019-06-20T19:10:33.467Z,66.70
2019-06-20T19:12:33.748Z,67.10
2019-06-20T19:14:35.561Z,64.60
2019-06-20T19:16:37.260Z,59.20
2019-06-20T19:18:39.054Z,58.50
2019-06-20T19:20:40.801Z,53.10
2019-06-20T19:22:42.513Z,49.30
2019-06-20T19:24:44.588Z,44.60
2019-06-20T19:26:46.392Z,44.60
2019-06-20T19:28:48.239Z,47.30
2019-06-20T19:30:51.157Z,50.60
2019-06-20T19:32:52.817Z,52.10
2019-06-20T19:35:01.821Z,51.20
2019-06-20T19:36:58.141Z,52.50
2019-06-20T19:38:59.884Z,50.00
2019-06-20T19:41:01.571Z,49.00
2019-06-20T19:43:03.252Z,53.00
2019-06-20T19:45:06.959Z,50.00
2019-06-20T19:47:08.638Z,52.90
2019-06-20T19:49:10.369Z,54.20
2019-06-20T19:51:12.045Z,53.60
2019-06-20T19:53:13.712Z,48.70
2019-06-20T19:55:15.417Z,49.80
2019-06-20T19:57:17.106Z,51.40
2019-06-20T19:59:18.781Z,50.10
2019-06-20T20:01:20.457Z,51.10
2019-06-20T20:03:22.128Z,51.20
2019-06-20T20:05:23.864Z,50.20
2019-06-20T20:07:25.542Z,47.00
2019-06-20T20:09:27.294Z,49.50
2019-06-20T20:11:29.271Z,45.30
2019-06-20T20:13:30.958Z,48.20
2019-06-20T20:15:32.660Z,51.10
2019-06-20T20:17:34.418Z,51.10
2019-06-20T20:19:36.088Z,51.20
2019-06-20T20:21:38.080Z,51.70
2019-06-20T20:23:39.759Z,50.30
2019-06-20T20:25:41.444Z,47.60
2019-06-20T20:27:43.105Z,54.20
2019-06-20T20:29:44.786Z,53.10
2019-06-20T20:31:46.464Z,48.50
2019-06-20T20:33:48.132Z,50.90
2019-06-20T20:35:49.806Z,52.00
2019-06-20T20:37:51.490Z,52.60
2019-06-20T20:39:53.278Z,53.00
2019-06-20T20:41:54.953Z,54.90
2019-06-20T20:43:56.713Z,50.70
2019-06-20T20:45:58.386Z,55.00
2019-06-20T20:48:00.062Z,49.50
2019-06-20T20:50:04.618Z,52.90
2019-06-20T20:52:06.305Z,52.80
2019-06-20T20:54:08.259Z,53.80
2019-06-20T20:56:09.933Z,56.20
2019-06-20T20:58:12.174Z,60.50
2019-06-20T21:00:21.540Z,63.50
2019-06-20T21:02:23.204Z,62.00
2019-06-20T21:04:25.249Z,67.40
2019-06-20T21:06:27.437Z,67.40
2019-06-20T21:08:32.645Z,69.80
2019-06-20T21:10:32.789Z,70.10
2019-06-20T21:12:34.462Z,72.70
2019-06-20T21:14:36.178Z,69.40
2019-06-20T21:16:37.983Z,67.30
2019-06-20T21:18:39.683Z,69.50
2019-06-20T21:20:41.415Z,71.40
2019-06-20T21:22:43.184Z,72.40
2019-06-20T21:24:44.856Z,65.70
2019-06-20T21:26:49.945Z,67.10
2019-06-20T21:28:50.402Z,65.40
2019-06-20T21:30:52.369Z,64.60
2019-06-20T21:32:54.322Z,64.40
2019-06-20T21:34:55.989Z,62.00
2019-06-20T21:36:57.662Z,63.90
2019-06-20T21:38:59.329Z,62.70
2019-06-20T21:41:01.012Z,60.00
2019-06-20T21:43:02.796Z,64.60
2019-06-20T21:45:04.880Z,62.50
2019-06-20T21:47:06.545Z,64.90
2019-06-20T21:49:08.205Z,65.20
2019-06-20T21:51:09.882Z,60.10
2019-06-20T21:53:11.555Z,58.00
2019-06-20T21:55:13.868Z,60.40
2019-06-20T21:57:15.533Z,61.10
2019-06-20T21:59:17.202Z,62.00
2019-06-20T22:01:19.100Z,58.50
2019-06-20T22:03:21.101Z,61.10
2019-06-20T22:05:22.870Z,62.40
2019-06-20T22:07:24.638Z,59.60
2019-06-20T22:09:26.307Z,59.50
2019-06-20T22:11:28.265Z,62.10
2019-06-20T22:13:30.221Z,58.70
2019-06-20T22:15:31.910Z,61.90
2019-06-20T22:17:33.713Z,62.40
2019-06-20T22:19:35.717Z,63.30
2019-06-20T22:21:37.402Z,60.90
2019-06-20T22:23:39.069Z,57.40
2019-06-20T22:25:40.814Z,58.20
2019-06-20T22:27:42.557Z,56.80
2019-06-20T22:29:44.234Z,61.10
2019-06-20T22:31:47.174Z,61.80
2019-06-20T22:33:49.192Z,59.40
2019-06-20T22:35:50.952Z,60.80
2019-06-20T22:37:52.605Z,63.10
2019-06-20T22:39:54.481Z,61.50
2019-06-20T22:41:56.153Z,61.40
2019-06-20T22:43:57.841Z,66.50
2019-06-20T22:45:59.513Z,66.00
2019-06-20T22:48:01.185Z,66.20
2019-06-20T22:50:02.979Z,67.80
2019-06-20T22:52:04.645Z,69.40
2019-06-20T22:54:06.309Z,71.40
2019-06-20T22:56:08.084Z,72.40
2019-06-20T22:58:09.857Z,72.80
2019-06-20T23:00:11.672Z,74.10
2019-06-20T23:02:13.394Z,76.20
2019-06-20T23:04:15.059Z,76.10
2019-06-20T23:06:16.738Z,75.80
2019-06-20T23:08:18.409Z,78.00
2019-06-20T23:10:20.340Z,78.20
2019-06-20T23:12:22.032Z,80.20
2019-06-20T23:14:23.696Z,78.20
2019-06-20T23:16:25.375Z,77.10
2019-06-20T23:18:27.048Z,78.40
2019-06-20T23:20:28.704Z,78.50
2019-06-20T23:22:30.817Z,79.40
2019-06-20T23:24:32.579Z,79.40
2019-06-20T23:26:34.264Z,79.60
2019-06-20T23:28:36.266Z,77.50
2019-06-20T23:30:37.943Z,76.10
2019-06-20T23:32:39.622Z,75.40
2019-06-20T23:34:41.293Z,75.30
2019-06-20T23:36:42.989Z,73.50
2019-06-20T23:38:44.729Z,76.70
2019-06-20T23:40:46.402Z,76.10
2019-06-20T23:42:48.088Z,76.20
2019-06-20T23:44:49.761Z,75.80
2019-06-20T23:46:51.525Z,76.60
2019-06-20T23:48:53.190Z,77.40
2019-06-20T23:50:54.877Z,78.40
2019-06-20T23:53:01.791Z,80.90
2019-06-20T23:55:03.969Z,80.60
2019-06-20T23:57:05.651Z,79.70
2019-06-20T23:59:07.318Z,79.20
